National Weather Service United States Department of Commerce

Monsoonal Moisture Persists Across the Southwest; Heat Remains for the South and West Coast

Persistent monsoonal moisture will affect portions of the four corners region that might generate isolated flooding, especially near burn scars. Heat persists across the South, including the middle and lower Mississippi River Valley, while temperatures also climb for much of the west coast. Read More >

Pre-Duty Controller Weather Briefing
The Pre-Duty Controller Weather Briefing is designed to increase controller situational awareness. This video is for ATC planning purposes only. It is produced by the Center Weather Service Unit three times daily. After hours or during changing weather this briefing may not represent the latest information. This product does not replace pilot pre-flight briefings.

     


This video was based on the Pre-Duty/Stand-Up Weather Briefing Page, and this Worksheet is used during Stand-Up Briefings.

If your browser did not allow embedded video or it did not update when expected, please open the ZSEPDWB.mp4 file directly at
   NIDS/CMS (default) or Western Region.



Latest Data:
Images


000
FTUS46 KSEW 251629 AAB
TAFSEA
TAF AMD
KSEA 251629Z 2516/2618 01014KT P6SM SKC
FM252200 36016KT P6SM SKC
FM260700 03006KT P6SM SKC
FM261700 02011KT P6SM SKC=


000
FTUS46 KPQR 251657 AAB
TAFPDX
TAF AMD
KPDX 251657Z 2517/2612 VRB03KT P6SM SKC WS020/09030KT
FM251800 07006KT P6SM SKC WS020/09030KT
FM251900 08015G26KT P6SM SKC
FM260100 08011KT P6SM SKC
FM260500 VRB04KT P6SM SKC WS020/09035KT=